Time;durP1;ratioP1;P1;durP2;ratioP2;P2;SDS_P1;SDS_P2;PMS_P1;PMS_P2;Temp;Humidity;BMP_temperature;BMP_pressure;BME280_temperature;BME280_humidity;BME280_pressure;Samples;Min_cycle;Max_cycle;Signal;HPM_P1;HPM_P2
2022/03/07 00:03:00;;;;;;;16.50;6.10;;;;;;;-2.13;100.00;100541.02;104956;1273;74591;-70
2022/03/07 00:05:47;;;;;;;14.10;5.60;;;;;;;-2.15;100.00;100536.02;104960;1273;67027;-70
2022/03/07 00:08:35;;;;;;;12.30;5.70;;;;;;;-2.13;100.00;100539.45;105261;1273;73100;-70
2022/03/07 00:11:28;;;;;;;15.50;5.70;;;;;;;-2.13;100.00;100532.33;104551;1273;59766;-69
2022/03/07 00:14:15;;;;;;;15.50;5.60;;;;;;;-2.14;100.00;100529.56;104814;1273;60738;-70
2022/03/07 00:17:03;;;;;;;14.30;5.60;;;;;;;-2.16;100.00;100530.46;104738;1273;71519;-70
2022/03/07 00:19:50;;;;;;;13.30;5.20;;;;;;;-2.20;100.00;100534.54;104051;1273;1003692;-70
2022/03/07 00:22:37;;;;;;;12.20;5.80;;;;;;;-2.25;100.00;100534.63;104530;1273;71897;-71
2022/03/07 00:25:25;;;;;;;16.40;6.60;;;;;;;-2.27;100.00;100532.41;104881;1273;59672;-70
2022/03/07 00:28:15;;;;;;;14.80;6.00;;;;;;;-2.30;100.00;100530.36;104833;1274;60440;-70
2022/03/07 00:31:06;;;;;;;18.80;6.80;;;;;;;-2.31;100.00;100530.02;104917;1273;72439;-70
2022/03/07 00:33:54;;;;;;;16.70;6.80;;;;;;;-2.32;100.00;100527.09;104892;1273;66092;-70
2022/03/07 00:36:41;;;;;;;16.10;7.20;;;;;;;-2.30;100.00;100526.37;104873;1273;73099;-70
2022/03/07 00:39:28;;;;;;;19.60;6.50;;;;;;;-2.30;100.00;100516.12;104780;1273;59677;-69
2022/03/07 00:42:16;;;;;;;15.50;6.60;;;;;;;-2.30;100.00;100510.36;104689;1275;61073;-70
2022/03/07 00:45:06;;;;;;;18.50;6.00;;;;;;;-2.29;100.00;100506.54;104881;1273;71978;-70
2022/03/07 00:47:53;;;;;;;15.00;5.20;;;;;;;-2.28;100.00;100505.65;104924;1273;67935;-70
2022/03/07 00:50:50;;;;;;;14.70;5.80;;;;;;;-2.27;100.00;100506.85;104877;1273;72856;-70
2022/03/07 00:53:38;;;;;;;14.20;5.50;;;;;;;-2.26;100.00;100501.27;104857;1273;59666;-71
2022/03/07 00:56:25;;;;;;;11.90;5.00;;;;;;;-2.27;100.00;100497.62;104679;1273;60512;-70
2022/03/07 00:59:13;;;;;;;10.50;4.80;;;;;;;-2.28;100.00;100494.52;105001;1273;73358;-70
2022/03/07 01:02:00;;;;;;;11.40;5.70;;;;;;;-2.29;100.00;100489.51;104777;1274;68516;-71
2022/03/07 01:04:47;;;;;;;13.30;5.30;;;;;;;-2.29;100.00;100481.50;104732;1273;73502;-71
2022/03/07 01:07:35;;;;;;;12.80;5.90;;;;;;;-2.30;100.00;100477.70;104940;1273;59789;-71
2022/03/07 01:10:22;;;;;;;13.40;4.90;;;;;;;-2.30;100.00;100472.14;105062;1273;60465;-71
2022/03/07 01:13:09;;;;;;;12.60;5.60;;;;;;;-2.30;100.00;100466.92;104983;1273;71598;-71
2022/03/07 01:15:56;;;;;;;13.50;5.30;;;;;;;-2.28;100.00;100463.94;104911;1273;68058;-71
2022/03/07 01:18:44;;;;;;;14.90;6.10;;;;;;;-2.29;100.00;100461.34;104856;1273;72727;-71
2022/03/07 01:21:30;;;;;;;12.50;5.50;;;;;;;-2.31;100.00;100453.73;104553;1273;59712;-70
2022/03/07 01:24:19;;;;;;;14.20;5.60;;;;;;;-2.30;100.00;100453.70;104860;1273;59667;-70
2022/03/07 01:27:06;;;;;;;16.60;5.10;;;;;;;-2.30;100.00;100452.84;104961;1273;73265;-70
2022/03/07 01:29:53;;;;;;;14.10;4.80;;;;;;;-2.29;100.00;100448.31;104812;1273;66740;-70
2022/03/07 01:32:41;;;;;;;12.80;4.80;;;;;;;-2.31;100.00;100454.93;104551;1273;73163;-70
2022/03/07 01:35:29;;;;;;;14.90;5.70;;;;;;;-2.34;100.00;100447.70;104687;1273;59782;-72
2022/03/07 01:38:16;;;;;;;12.80;4.90;;;;;;;-2.38;100.00;100444.11;104655;1273;61585;-70
2022/03/07 01:41:03;;;;;;;14.20;5.60;;;;;;;-2.44;100.00;100439.52;104791;1274;72107;-70
2022/03/07 01:43:51;;;;;;;18.40;7.30;;;;;;;-2.49;100.00;100444.83;104887;1273;67125;-70
2022/03/07 01:46:37;;;;;;;20.00;7.60;;;;;;;-2.53;100.00;100439.52;105092;1274;73218;-70
2022/03/07 01:49:25;;;;;;;20.80;8.40;;;;;;;-2.58;100.00;100433.88;104682;1273;59780;-70
2022/03/07 01:52:18;;;;;;;21.10;7.90;;;;;;;-2.59;100.00;100434.75;105060;1273;59712;-71
2022/03/07 01:55:09;;;;;;;18.30;7.90;;;;;;;-2.60;100.00;100432.18;104676;1273;73281;-71
2022/03/07 01:58:01;;;;;;;18.40;6.80;;;;;;;-2.61;100.00;100429.77;104912;1273;68186;-71
2022/03/07 02:00:50;;;;;;;15.20;6.30;;;;;;;-2.62;100.00;100426.64;104310;1273;1003857;-71
2022/03/07 02:03:37;;;;;;;15.80;6.50;;;;;;;-2.64;100.00;100425.81;104928;1274;60946;-71
2022/03/07 02:06:26;;;;;;;15.10;6.30;;;;;;;-2.64;100.00;100434.84;104831;1273;61229;-71
2022/03/07 02:09:15;;;;;;;17.50;6.80;;;;;;;-2.66;100.00;100435.41;104848;1273;71929;-71
2022/03/07 02:12:04;;;;;;;14.10;6.60;;;;;;;-2.67;100.00;100435.08;104781;1273;67022;-71
2022/03/07 02:14:54;;;;;;;16.60;7.10;;;;;;;-2.70;100.00;100431.82;105215;1273;71562;-71
2022/03/07 02:17:47;;;;;;;14.20;6.00;;;;;;;-2.71;100.00;100424.54;104979;1274;59654;-71
2022/03/07 02:20:35;;;;;;;17.60;6.60;;;;;;;-2.72;100.00;100433.08;104841;1273;59694;-71
2022/03/07 02:23:23;;;;;;;13.40;5.60;;;;;;;-2.74;100.00;100425.11;104860;1273;73704;-72
2022/03/07 02:26:17;;;;;;;14.40;6.20;;;;;;;-2.75;100.00;100423.90;104627;1274;66499;-72
2022/03/07 02:29:04;;;;;;;15.80;7.00;;;;;;;-2.73;100.00;100427.19;104302;1273;1003037;-71
2022/03/07 02:31:52;;;;;;;16.30;6.10;;;;;;;-2.70;100.00;100431.83;104948;1274;60002;-72
2022/03/07 02:34:40;;;;;;;15.60;6.80;;;;;;;-2.67;100.00;100428.82;104856;1274;60537;-71
2022/03/07 02:37:28;;;;;;;15.20;6.60;;;;;;;-2.61;100.00;100433.59;104247;1273;1003621;-71
2022/03/07 02:40:14;;;;;;;12.20;5.60;;;;;;;-2.58;100.00;100435.96;105028;1274;68316;-71
2022/03/07 02:43:22;;;;;;;11.50;4.60;;;;;;;-2.54;100.00;100439.02;104719;1274;71531;-70
2022/03/07 02:46:09;;;;;;;21.80;7.20;;;;;;;-2.52;100.00;100439.50;104130;1274;1002965;-71
2022/03/07 02:48:57;;;;;;;24.80;10.30;;;;;;;-2.50;100.00;100438.42;104462;1273;1002981;-71
2022/03/07 02:51:44;;;;;;;23.00;12.00;;;;;;;-2.47;100.00;100440.98;104543;1273;72134;-70
2022/03/07 02:54:31;;;;;;;34.00;16.00;;;;;;;-2.46;100.00;100447.91;104857;1273;68218;-70
2022/03/07 02:57:19;;;;;;;41.00;19.70;;;;;;;-2.46;100.00;100444.27;104588;1274;71938;-70
2022/03/07 03:00:07;;;;;;;35.70;15.60;;;;;;;-2.44;100.00;100449.61;104839;1273;59594;-70
2022/03/07 03:02:54;;;;;;;19.90;9.60;;;;;;;-2.42;100.00;100444.54;104691;1273;59752;-70
2022/03/07 03:05:41;;;;;;;17.60;8.60;;;;;;;-2.40;100.00;100442.74;104828;1273;73270;-70
2022/03/07 03:08:29;;;;;;;17.80;8.90;;;;;;;-2.39;100.00;100439.08;104807;1273;66391;-69
2022/03/07 03:11:16;;;;;;;18.70;8.20;;;;;;;-2.39;100.00;100437.19;104878;1273;72982;-69
2022/03/07 03:14:04;;;;;;;15.90;7.10;;;;;;;-2.41;100.00;100435.64;105004;1273;59890;-69
2022/03/07 03:16:51;;;;;;;15.00;6.50;;;;;;;-2.41;100.00;100439.48;104507;1274;59569;-70
2022/03/07 03:19:38;;;;;;;16.00;7.80;;;;;;;-2.42;100.00;100436.71;104815;1274;73759;-71
2022/03/07 03:22:25;;;;;;;16.40;8.20;;;;;;;-2.42;100.00;100439.85;104798;1273;66939;-70
2022/03/07 03:25:17;;;;;;;14.40;6.50;;;;;;;-2.44;100.00;100440.39;104830;1274;71648;-69
2022/03/07 03:28:05;;;;;;;17.50;7.30;;;;;;;-2.46;100.00;100443.22;105054;1273;59605;-69
2022/03/07 03:30:53;;;;;;;13.70;6.30;;;;;;;-2.47;100.00;100443.75;105177;1274;59834;-70
2022/03/07 03:33:42;;;;;;;16.60;7.80;;;;;;;-2.47;100.00;100446.52;104679;1273;73340;-69
2022/03/07 03:36:28;;;;;;;15.50;6.90;;;;;;;-2.48;100.00;100447.95;105042;1273;66659;-69
2022/03/07 03:39:17;;;;;;;16.80;6.30;;;;;;;-2.47;100.00;100451.23;104470;1274;72826;-70
2022/03/07 03:42:05;;;;;;;14.70;6.50;;;;;;;-2.47;100.00;100448.61;104855;1273;59881;-70
2022/03/07 03:44:52;;;;;;;15.00;5.80;;;;;;;-2.47;100.00;100452.96;104984;1273;60967;-70
2022/03/07 03:47:42;;;;;;;13.40;5.90;;;;;;;-2.47;100.00;100452.09;105003;1274;72271;-70
2022/03/07 03:50:29;;;;;;;15.10;6.20;;;;;;;-2.47;100.00;100450.89;104751;1273;68021;-70
2022/03/07 03:53:16;;;;;;;13.80;6.20;;;;;;;-2.47;100.00;100451.41;105067;1272;73031;-70
2022/03/07 03:56:03;;;;;;;13.40;5.30;;;;;;;-2.47;100.00;100450.89;104817;1273;59740;-70
2022/03/07 03:58:51;;;;;;;14.30;5.00;;;;;;;-2.49;100.00;100448.84;104928;1271;60182;-70
2022/03/07 04:01:38;;;;;;;9.50;3.60;;;;;;;-2.48;100.00;100447.42;104771;1273;73392;-70
2022/03/07 04:04:26;;;;;;;13.10;4.50;;;;;;;-2.49;100.00;100446.57;104584;1273;68386;-70
2022/03/07 04:07:14;;;;;;;12.50;5.10;;;;;;;-2.53;100.00;100440.73;105076;1273;71688;-70
2022/03/07 04:10:01;;;;;;;16.70;5.70;;;;;;;-2.58;100.00;100437.67;104546;1273;59848;-70
2022/03/07 04:12:48;;;;;;;14.60;5.60;;;;;;;-2.60;100.00;100439.48;104730;1274;59443;-70
2022/03/07 04:15:38;;;;;;;14.70;6.50;;;;;;;-2.64;100.00;100435.53;105076;1273;73832;-70
2022/03/07 04:18:25;;;;;;;13.40;6.10;;;;;;;-2.66;100.00;100436.27;105295;1273;66574;-70
2022/03/07 04:21:12;;;;;;;14.60;6.10;;;;;;;-2.67;100.00;100438.02;104782;1273;71796;-71
2022/03/07 04:24:00;;;;;;;16.40;5.80;;;;;;;-2.68;100.00;100437.52;104844;1274;59607;-70
2022/03/07 04:26:47;;;;;;;13.40;5.90;;;;;;;-2.68;100.00;100436.14;104652;1273;59723;-70
2022/03/07 04:29:34;;;;;;;13.70;6.00;;;;;;;-2.67;100.00;100434.55;104847;1273;72226;-69
2022/03/07 04:32:24;;;;;;;14.50;5.70;;;;;;;-2.66;100.00;100438.36;105037;1273;68707;-70
2022/03/07 04:35:12;;;;;;;14.60;5.50;;;;;;;-2.65;100.00;100442.52;105148;1273;72949;-71
2022/03/07 04:38:01;;;;;;;13.80;5.20;;;;;;;-2.64;100.00;100447.17;105035;1273;59675;-72
2022/03/07 04:40:53;;;;;;;11.50;3.90;;;;;;;-2.62;100.00;100448.02;104782;1273;60823;-71
2022/03/07 04:43:39;;;;;;;10.80;4.20;;;;;;;-2.61;100.00;100448.35;104754;1273;72195;-70
2022/03/07 04:46:26;;;;;;;10.30;4.00;;;;;;;-2.62;100.00;100444.19;104910;1273;67288;-71
2022/03/07 04:49:18;;;;;;;11.30;3.70;;;;;;;-2.64;100.00;100441.27;105039;1274;71179;-71
2022/03/07 04:52:06;;;;;;;11.70;4.50;;;;;;;-2.65;100.00;100444.78;104988;1273;59810;-72
2022/03/07 04:54:53;;;;;;;11.60;5.10;;;;;;;-2.67;100.00;100440.80;105010;1273;60975;-71
2022/03/07 04:57:43;;;;;;;15.40;6.00;;;;;;;-2.67;100.00;100447.05;104971;1274;73301;-70
2022/03/07 05:00:31;;;;;;;14.90;5.40;;;;;;;-2.67;100.00;100448.45;104801;1273;66971;-70
2022/03/07 05:03:18;;;;;;;13.30;5.10;;;;;;;-2.68;100.00;100448.29;105094;1274;71535;-72
2022/03/07 05:06:05;;;;;;;13.60;5.00;;;;;;;-2.67;100.00;100452.10;105118;1273;59632;-72
2022/03/07 05:08:52;;;;;;;18.00;6.90;;;;;;;-2.67;100.00;100448.45;105267;1274;59909;-70
2022/03/07 05:11:39;;;;;;;17.60;6.60;;;;;;;-2.67;100.00;100444.63;104853;1273;73282;-71
2022/03/07 05:14:26;;;;;;;14.10;6.40;;;;;;;-2.67;100.00;100448.27;105217;1273;68305;-70
2022/03/07 05:17:13;;;;;;;19.20;8.80;;;;;;;-2.66;100.00;100444.44;104759;1273;72871;-69
2022/03/07 05:20:00;;;;;;;19.80;8.80;;;;;;;-2.64;100.00;100442.31;105119;1274;59711;-71
2022/03/07 05:22:48;;;;;;;16.10;6.20;;;;;;;-2.62;100.00;100449.92;105015;1273;61407;-70
2022/03/07 05:25:35;;;;;;;12.30;4.60;;;;;;;-2.61;100.00;100453.55;105031;1274;72558;-70
2022/03/07 05:28:22;;;;;;;10.80;4.00;;;;;;;-2.61;100.00;100454.95;105573;1273;67961;-72
2022/03/07 05:31:12;;;;;;;9.80;3.50;;;;;;;-2.59;100.00;100459.45;105572;1274;71466;-71
2022/03/07 05:33:59;;;;;;;12.20;4.00;;;;;;;-2.59;100.00;100461.85;105742;1274;59631;-72
2022/03/07 05:36:47;;;;;;;12.20;4.00;;;;;;;-2.58;100.00;100462.70;105237;1274;61063;-71
2022/03/07 05:39:34;;;;;;;11.90;4.70;;;;;;;-2.57;100.00;100462.00;105279;1274;73342;-72
2022/03/07 05:42:21;;;;;;;10.60;4.20;;;;;;;-2.55;100.00;100460.23;105023;1273;66230;-71
2022/03/07 05:45:10;;;;;;;11.50;4.30;;;;;;;-2.54;100.00;100458.65;105310;1274;71567;-72
2022/03/07 05:47:57;;;;;;;11.00;3.90;;;;;;;-2.50;100.00;100457.36;105061;1274;59636;-73
2022/03/07 05:50:44;;;;;;;10.60;3.90;;;;;;;-2.43;100.00;100456.54;104967;1274;60060;-72
2022/03/07 05:53:32;;;;;;;11.60;4.20;;;;;;;-2.36;100.00;100459.55;105112;1275;73278;-70
2022/03/07 05:56:19;;;;;;;10.90;4.20;;;;;;;-2.32;100.00;100453.05;105124;1274;68401;-71
2022/03/07 05:59:06;;;;;;;12.30;3.80;;;;;;;-2.26;100.00;100453.45;105431;1274;73259;-71
2022/03/07 06:01:53;;;;;;;10.50;4.00;;;;;;;-2.20;100.00;100453.88;104877;1274;59308;-71
2022/03/07 06:04:41;;;;;;;13.10;4.40;;;;;;;-2.15;100.00;100456.89;105111;1274;59575;-71
2022/03/07 06:07:29;;;;;;;11.10;3.70;;;;;;;-2.10;100.00;100452.27;105624;1274;73257;-71
2022/03/07 06:10:16;;;;;;;9.50;3.70;;;;;;;-2.03;100.00;100454.41;105296;1273;68715;-71
2022/03/07 06:13:03;;;;;;;11.00;4.00;;;;;;;-1.98;100.00;100454.13;105157;1275;72942;-70
2022/03/07 06:15:50;;;;;;;8.50;3.30;;;;;;;-1.93;100.00;100452.81;104919;1274;59790;-72
2022/03/07 06:18:37;;;;;;;11.20;3.80;;;;;;;-1.87;100.00;100457.74;105155;1274;59882;-71
2022/03/07 06:21:24;;;;;;;11.10;3.70;;;;;;;-1.85;100.00;100448.48;105142;1274;72201;-71
2022/03/07 06:24:11;;;;;;;9.00;3.30;;;;;;;-1.81;100.00;100449.27;105257;1274;68136;-71
2022/03/07 06:27:01;;;;;;;11.10;3.90;;;;;;;-1.76;100.00;100449.36;104942;1273;73582;-74
2022/03/07 06:29:48;;;;;;;12.50;4.10;;;;;;;-1.70;100.00;100451.13;104870;1274;59654;-74
2022/03/07 06:32:36;;;;;;;9.60;3.40;;;;;;;-1.63;100.00;100452.55;105030;1274;59749;-75
2022/03/07 06:35:24;;;;;;;10.70;3.40;;;;;;;-1.55;100.00;100450.82;105295;1274;73389;-73
2022/03/07 06:38:10;;;;;;;9.40;3.30;;;;;;;-1.48;100.00;100449.98;104879;1274;68074;-72
2022/03/07 06:40:58;;;;;;;14.00;3.50;;;;;;;-1.39;100.00;100446.12;105167;1273;71966;-72
2022/03/07 06:43:45;;;;;;;11.80;3.80;;;;;;;-1.30;100.00;100443.83;104213;1273;1002339;-69
2022/03/07 06:46:32;;;;;;;11.60;3.50;;;;;;;-1.20;100.00;100442.74;105175;1274;59576;-71
2022/03/07 06:49:19;;;;;;;8.60;3.10;;;;;;;-1.11;100.00;100442.52;105131;1275;73209;-70
2022/03/07 06:52:07;;;;;;;9.60;3.40;;;;;;;-1.02;100.00;100442.84;105121;1273;68136;-70
2022/03/07 06:54:54;;;;;;;11.20;3.40;;;;;;;-0.92;100.00;100441.02;104806;1273;72637;-72
2022/03/07 06:57:42;;;;;;;10.30;3.00;;;;;;;-0.81;100.00;100437.98;105060;1274;59767;-70
2022/03/07 07:00:29;;;;;;;7.60;2.60;;;;;;;-0.71;99.97;100435.45;104127;1273;1003820;-71
2022/03/07 07:03:16;;;;;;;9.50;3.00;;;;;;;-0.56;99.67;100440.13;105323;1275;71219;-73
2022/03/07 07:06:04;;;;;;;10.80;3.40;;;;;;;-0.38;99.11;100437.91;105140;1273;68500;-70
2022/03/07 07:08:51;;;;;;;7.80;2.70;;;;;;;-0.11;98.88;100435.45;104911;1274;71386;-72
2022/03/07 07:11:39;;;;;;;8.50;2.80;;;;;;;0.76;99.05;100431.83;104999;1274;59654;-71
2022/03/07 07:14:27;;;;;;;7.60;2.90;;;;;;;2.75;94.35;100425.55;105169;1275;60711;-70
2022/03/07 07:17:16;;;;;;;9.40;2.90;;;;;;;4.74;89.23;100412.71;104904;1274;73032;-73
2022/03/07 07:20:05;;;;;;;10.20;2.80;;;;;;;6.51;79.61;100412.66;104930;1274;67022;-73
2022/03/07 07:22:52;;;;;;;10.50;3.20;;;;;;;8.00;71.49;100405.59;105344;1275;70597;-73
2022/03/07 07:25:41;;;;;;;8.10;2.70;;;;;;;9.32;65.15;100394.17;104892;1277;60824;-73
2022/03/07 07:28:28;;;;;;;8.20;2.80;;;;;;;10.59;62.77;100392.87;104930;1273;60604;-74
2022/03/07 07:31:15;;;;;;;7.90;3.00;;;;;;;11.64;55.83;100389.70;104919;1274;73222;-74
2022/03/07 07:34:03;;;;;;;9.40;2.80;;;;;;;12.67;51.91;100385.03;104879;1275;67278;-75
2022/03/07 07:36:50;;;;;;;8.90;2.60;;;;;;;13.57;47.47;100382.96;104940;1274;71671;-76
2022/03/07 07:39:38;;;;;;;7.90;3.00;;;;;;;14.26;45.47;100378.95;105181;1274;59763;-75
2022/03/07 07:42:28;;;;;;;6.80;2.40;;;;;;;15.04;42.92;100371.30;105053;1274;59926;-75
2022/03/07 07:45:19;;;;;;;7.30;2.30;;;;;;;15.70;40.50;100368.77;105185;1275;72177;-75
2022/03/07 07:48:06;;;;;;;9.60;2.60;;;;;;;16.37;39.33;100365.42;104783;1275;68609;-75
2022/03/07 07:50:55;;;;;;;7.70;2.20;;;;;;;16.91;37.76;100366.39;105012;1277;72912;-75
2022/03/07 07:53:42;;;;;;;8.40;2.60;;;;;;;17.33;35.02;100364.58;105149;1275;59790;-75
2022/03/07 07:56:29;;;;;;;7.50;2.10;;;;;;;17.74;34.02;100365.41;105344;1274;59591;-76
2022/03/07 07:59:18;;;;;;;6.80;2.00;;;;;;;18.09;33.45;100370.64;105142;1274;71243;-75
2022/03/07 08:02:05;;;;;;;7.20;2.10;;;;;;;18.51;32.83;100368.79;104822;1274;67152;-76
2022/03/07 08:04:53;;;;;;;7.30;2.10;;;;;;;18.86;31.62;100365.74;105076;1274;73159;-74
2022/03/07 08:07:46;;;;;;;7.40;2.10;;;;;;;19.04;29.88;100372.66;104886;1274;59752;-75
2022/03/07 08:10:34;;;;;;;6.90;1.70;;;;;;;19.23;29.78;100369.84;104977;1274;59597;-75
2022/03/07 08:13:21;;;;;;;7.10;1.90;;;;;;;19.55;29.41;100371.51;105300;1275;73221;-75
2022/03/07 08:16:09;;;;;;;5.30;1.40;;;;;;;19.66;28.40;100373.02;104707;1275;66567;-75
2022/03/07 08:18:56;;;;;;;6.00;1.30;;;;;;;19.40;27.31;100370.38;105101;1274;71570;-76
2022/03/07 08:21:43;;;;;;;6.70;1.70;;;;;;;19.45;27.72;100373.17;104651;1277;273150;-77
2022/03/07 08:24:30;;;;;;;6.90;1.70;;;;;;;19.58;27.57;100368.88;104887;1277;60439;-75
2022/03/07 08:27:17;;;;;;;6.90;2.00;;;;;;;19.68;27.23;100369.33;104790;1278;73487;-76
2022/03/07 08:30:10;;;;;;;7.40;1.70;;;;;;;19.76;27.20;100370.55;104483;1278;68154;-75
2022/03/07 08:32:57;;;;;;;7.60;1.70;;;;;;;19.83;27.04;100369.33;105668;1278;73855;-75
2022/03/07 08:35:45;;;;;;;7.20;1.80;;;;;;;19.73;26.74;100373.33;105125;1277;59677;-76
2022/03/07 08:38:32;;;;;;;6.00;1.40;;;;;;;19.87;26.38;100378.80;104760;1278;59873;-76
2022/03/07 08:41:20;;;;;;;7.20;1.80;;;;;;;19.74;26.14;100379.86;105017;1278;72076;-77
2022/03/07 08:44:07;;;;;;;7.30;1.80;;;;;;;19.76;26.31;100388.25;104821;1278;66915;-77
2022/03/07 08:46:54;;;;;;;6.10;1.70;;;;;;;19.61;26.20;100389.59;105112;1278;73078;-77
2022/03/07 08:49:44;;;;;;;7.20;1.70;;;;;;;19.49;26.39;100391.83;104948;1277;60026;-77
2022/03/07 08:52:31;;;;;;;7.10;1.80;;;;;;;19.55;26.35;100384.53;104663;1273;61058;-76
2022/03/07 08:55:19;;;;;;;11.80;4.20;;;;;;;18.73;27.18;100391.58;104808;1275;73267;-77
2022/03/07 08:58:09;;;;;;;7.60;2.30;;;;;;;18.69;28.02;100401.30;105118;1273;68210;-77
2022/03/07 09:00:57;;;;;;;7.30;2.30;;;;;;;18.76;27.81;100395.78;105199;1274;72642;-77
2022/03/07 09:03:48;;;;;;;8.20;2.60;;;;;;;18.73;28.18;100401.09;104864;1274;59684;-77
2022/03/07 09:06:36;;;;;;;7.60;2.40;;;;;;;18.48;28.21;100400.92;104885;1274;60524;-77
2022/03/07 09:09:26;;;;;;;7.40;2.40;;;;;;;18.93;27.86;100402.70;104620;1274;73820;-76
2022/03/07 09:12:22;;;;;;;8.50;2.50;;;;;;;19.53;27.09;100400.90;104891;1274;68414;-77
2022/03/07 09:15:09;;;;;;;8.40;2.70;;;;;;;19.69;26.61;100401.16;104983;1274;73413;-76
2022/03/07 09:17:57;;;;;;;7.10;2.00;;;;;;;19.44;26.52;100407.09;105036;1273;59670;-75
2022/03/07 09:20:44;;;;;;;10.30;2.00;;;;;;;19.03;26.59;100407.29;104927;1274;60946;-77
2022/03/07 09:23:37;;;;;;;6.90;1.50;;;;;;;19.11;26.36;100404.42;104849;1274;73645;-77
2022/03/07 09:26:24;;;;;;;7.40;1.60;;;;;;;19.31;26.20;100409.73;105200;1274;68351;-77
2022/03/07 09:29:12;;;;;;;5.90;1.20;;;;;;;20.08;25.37;100413.18;104822;1274;73211;-77
2022/03/07 09:32:00;;;;;;;7.40;1.30;;;;;;;20.47;24.45;100413.89;105007;1274;59632;-76
2022/03/07 09:34:48;;;;;;;6.10;1.70;;;;;;;20.83;24.29;100409.63;104891;1274;59584;-77
2022/03/07 09:37:35;;;;;;;6.60;1.70;;;;;;;21.12;23.79;100408.43;105131;1274;72124;-76
2022/03/07 09:40:22;;;;;;;6.60;1.50;;;;;;;21.27;23.45;100404.42;104839;1274;67936;-76
2022/03/07 09:43:09;;;;;;;7.90;1.40;;;;;;;21.06;23.62;100412.03;104798;1274;72859;-76
2022/03/07 09:45:58;;;;;;;9.30;1.50;;;;;;;21.19;23.46;100418.39;105157;1274;59790;-76
2022/03/07 09:48:46;;;;;;;7.20;1.60;;;;;;;21.54;23.29;100420.30;105048;1274;60130;-76
2022/03/07 09:51:34;;;;;;;6.50;1.40;;;;;;;20.96;23.56;100423.78;105265;1273;74391;-77
2022/03/07 09:54:23;;;;;;;6.00;1.20;;;;;;;19.43;24.91;100431.06;105232;1274;68854;-76
2022/03/07 09:57:10;;;;;;;6.20;1.40;;;;;;;17.66;26.72;100436.73;105278;1272;71830;-76
2022/03/07 10:00:01;;;;;;;6.70;1.30;;;;;;;16.91;28.03;100434.18;104736;1274;59800;-75
2022/03/07 10:03:09;;;;;;;8.40;1.80;;;;;;;17.42;27.94;100433.84;105385;1273;60347;-75
2022/03/07 10:05:57;;;;;;;7.80;1.70;;;;;;;18.52;26.54;100432.42;105248;1274;73266;-76
2022/03/07 10:08:58;;;;;;;6.60;1.90;;;;;;;18.91;25.95;100437.77;104997;1274;67562;-75
2022/03/07 10:11:53;;;;;;;6.10;1.60;;;;;;;19.88;24.81;100428.73;105389;1274;73355;-75
2022/03/07 10:14:45;;;;;;;7.40;2.00;;;;;;;20.40;24.33;100431.60;105039;1274;59719;-76
2022/03/07 10:17:32;;;;;;;8.40;1.80;;;;;;;20.74;23.44;100430.05;105066;1274;60708;-75
2022/03/07 10:20:23;;;;;;;8.90;1.80;;;;;;;21.03;23.24;100435.94;105573;1274;72506;-76
2022/03/07 10:23:11;;;;;;;8.50;1.70;;;;;;;21.64;22.46;100432.49;105341;1274;67223;-76
2022/03/07 10:26:12;;;;;;;7.20;1.60;;;;;;;21.94;21.88;100430.91;105372;1274;73071;-76
2022/03/07 10:29:05;;;;;;;6.90;1.40;;;;;;;22.30;22.03;100435.19;105349;1274;59397;-76
2022/03/07 10:32:17;;;;;;;7.40;1.70;;;;;;;22.71;21.30;100423.72;104982;1274;59705;-76
2022/03/07 10:35:07;;;;;;;6.80;1.70;;;;;;;23.00;21.03;100434.81;104932;1274;73211;-77
2022/03/07 10:38:11;;;;;;;7.40;1.50;;;;;;;22.81;20.39;100434.65;105312;1274;68581;-76
2022/03/07 10:41:02;;;;;;;6.40;1.40;;;;;;;22.56;20.75;100434.39;105421;1274;71441;-76
2022/03/07 10:43:49;;;;;;;6.30;1.50;;;;;;;22.63;20.63;100434.14;105065;1274;59695;-76
2022/03/07 10:46:40;;;;;;;5.70;1.20;;;;;;;22.69;20.20;100430.50;104785;1274;60725;-76
2022/03/07 10:49:27;;;;;;;6.80;1.50;;;;;;;22.49;20.28;100436.73;104778;1274;73619;-76
2022/03/07 10:52:14;;;;;;;6.40;1.70;;;;;;;22.46;20.69;100444.38;105226;1274;66833;-76
2022/03/07 10:55:02;;;;;;;8.90;1.80;;;;;;;22.21;20.64;100439.72;105362;1274;72579;-76
2022/03/07 10:57:50;;;;;;;6.50;1.50;;;;;;;22.38;20.54;100448.74;105049;1274;59652;-76
2022/03/07 11:01:09;;;;;;;6.90;1.60;;;;;;;22.53;20.26;100445.11;104677;1274;60980;-76
2022/03/07 11:03:57;;;;;;;8.20;1.50;;;;;;;22.06;20.87;100436.66;104378;1282;72374;-75
2022/03/07 11:06:47;;;;;;;8.10;1.60;;;;;;;21.64;21.53;100443.27;104344;1281;68736;-75
2022/03/07 11:09:39;;;;;;;6.30;1.30;;;;;;;21.09;21.71;100446.84;104301;1281;72707;-76
2022/03/07 11:12:27;;;;;;;8.90;1.60;;;;;;;21.03;22.12;100446.37;104486;1282;59682;-77
2022/03/07 11:15:18;;;;;;;8.10;2.00;;;;;;;21.20;22.15;100447.74;104592;1281;60811;-76
2022/03/07 11:18:09;;;;;;;6.80;1.50;;;;;;;20.91;22.29;100447.79;104401;1279;73378;-76
2022/03/07 11:20:58;;;;;;;6.60;1.40;;;;;;;20.85;22.29;100449.03;104350;1279;67171;-77
2022/03/07 11:23:47;;;;;;;7.30;1.70;;;;;;;21.00;22.16;100446.55;104650;1280;72784;-77
2022/03/07 11:26:35;;;;;;;7.20;1.60;;;;;;;21.07;22.05;100439.27;104629;1279;59959;-76
2022/03/07 11:29:41;;;;;;;7.50;1.40;;;;;;;21.23;21.97;100441.73;104448;1280;61077;-74
2022/03/07 11:32:38;;;;;;;7.60;1.40;;;;;;;20.98;22.32;100443.56;104557;1280;72788;-76
2022/03/07 11:35:34;;;;;;;7.30;1.30;;;;;;;20.46;22.44;100441.03;104477;1280;66802;-76
2022/03/07 11:38:31;;;;;;;7.90;1.80;;;;;;;19.76;23.61;100442.46;104617;1280;71511;-75
2022/03/07 11:41:30;;;;;;;7.00;1.40;;;;;;;19.11;24.37;100449.38;105325;1274;59707;-77
2022/03/07 11:44:22;;;;;;;6.50;1.50;;;;;;;18.74;24.90;100451.98;105089;1274;59699;-76
2022/03/07 11:47:19;;;;;;;7.30;1.40;;;;;;;18.17;25.26;100449.69;105584;1274;73287;-76
2022/03/07 11:50:08;;;;;;;8.30;1.30;;;;;;;17.88;25.71;100446.52;105081;1274;68186;-76
2022/03/07 11:53:04;;;;;;;7.80;1.70;;;;;;;17.61;26.41;100450.75;105078;1273;71743;-75
2022/03/07 11:55:53;;;;;;;6.20;1.40;;;;;;;17.35;26.71;100446.03;105097;1274;59686;-77
2022/03/07 11:58:51;;;;;;;8.60;1.40;;;;;;;17.24;26.86;100446.36;105115;1274;59574;-76
2022/03/07 12:01:38;;;;;;;7.40;1.40;;;;;;;17.08;27.01;100444.85;105196;1274;72653;-76
2022/03/07 12:04:44;;;;;;;7.20;1.80;;;;;;;16.73;27.69;100445.95;105087;1274;68640;-75
2022/03/07 12:07:31;;;;;;;6.00;1.20;;;;;;;16.24;28.10;100445.88;104780;1274;73006;-75
2022/03/07 12:10:19;;;;;;;9.10;1.60;;;;;;;15.24;29.22;100453.98;104907;1272;59752;-74
2022/03/07 12:13:11;;;;;;;7.90;1.40;;;;;;;13.84;31.56;100454.41;105349;1274;59634;-73
2022/03/07 12:16:03;;;;;;;8.10;1.50;;;;;;;13.22;32.75;100454.93;104945;1274;73116;-74
2022/03/07 12:18:55;;;;;;;8.70;1.60;;;;;;;13.11;33.42;100451.60;104996;1274;68580;-74
2022/03/07 12:21:45;;;;;;;6.90;1.70;;;;;;;13.06;33.83;100452.86;105152;1273;72862;-74
2022/03/07 12:24:36;;;;;;;7.00;1.60;;;;;;;13.00;34.07;100454.48;104909;1274;59835;-74
2022/03/07 12:27:24;;;;;;;6.90;1.70;;;;;;;13.03;34.09;100452.81;105335;1274;60429;-74
2022/03/07 12:30:12;;;;;;;8.10;1.60;;;;;;;12.81;34.62;100464.30;105405;1274;73355;-73
2022/03/07 12:33:09;;;;;;;7.80;1.80;;;;;;;12.62;35.07;100458.04;105007;1274;69062;-73
2022/03/07 12:36:10;;;;;;;7.50;1.70;;;;;;;12.42;35.56;100463.52;105178;1274;72919;-74
2022/03/07 12:39:00;;;;;;;6.80;1.70;;;;;;;12.20;36.00;100463.10;105431;1273;59518;-73
2022/03/07 12:41:47;;;;;;;8.50;1.70;;;;;;;11.85;37.12;100464.88;104941;1273;59658;-74
2022/03/07 12:44:37;;;;;;;7.80;1.90;;;;;;;11.58;37.81;100462.16;104977;1273;72013;-75
2022/03/07 12:47:38;;;;;;;7.80;1.60;;;;;;;11.22;38.47;100466.25;105018;1274;68052;-73
2022/03/07 12:50:32;;;;;;;7.30;1.50;;;;;;;10.70;39.54;100477.63;105008;1273;71808;-75